createdAt,value
2018-08-25T00:00:18.113Z,17.42
2018-08-25T00:01:18.109Z,17.42
2018-08-25T00:02:18.107Z,17.39
2018-08-25T00:03:18.101Z,17.36
2018-08-25T00:04:18.096Z,17.36
2018-08-25T00:05:18.094Z,17.35
2018-08-25T00:06:18.098Z,17.39
2018-08-25T00:07:18.095Z,17.25
2018-08-25T00:08:18.091Z,17.30
2018-08-25T00:09:18.083Z,17.35
2018-08-25T00:10:18.081Z,17.24
2018-08-25T00:11:18.082Z,17.27
2018-08-25T00:12:18.078Z,17.27
2018-08-25T00:13:18.076Z,17.35
2018-08-25T00:14:18.072Z,17.24
2018-08-25T00:15:18.065Z,17.25
2018-08-25T00:16:18.062Z,17.28
2018-08-25T00:17:18.060Z,17.27
2018-08-25T00:18:18.058Z,17.18
2018-08-25T00:19:18.058Z,17.24
2018-08-25T00:20:18.054Z,17.20
2018-08-25T00:21:18.053Z,17.17
2018-08-25T00:22:18.050Z,17.18
2018-08-25T00:23:18.044Z,17.24
2018-08-25T00:24:18.038Z,17.14
2018-08-25T00:25:18.040Z,17.22
2018-08-25T00:26:18.038Z,17.22
2018-08-25T00:27:18.030Z,17.20
2018-08-25T00:28:18.027Z,17.17
2018-08-25T00:29:18.023Z,17.22
2018-08-25T00:30:18.020Z,17.24
2018-08-25T00:31:18.022Z,17.21
2018-08-25T00:32:18.018Z,17.14
2018-08-25T00:33:18.017Z,17.12
2018-08-25T00:34:18.013Z,17.14
2018-08-25T00:35:18.014Z,17.14
2018-08-25T00:36:18.002Z,17.18
2018-08-25T00:37:17.999Z,17.22
2018-08-25T00:38:17.997Z,17.14
2018-08-25T00:39:17.998Z,17.14
2018-08-25T00:40:17.995Z,17.17
2018-08-25T00:41:17.989Z,17.18
2018-08-25T00:42:17.986Z,17.12
2018-08-25T00:43:17.986Z,17.10
2018-08-25T00:44:17.984Z,17.14
2018-08-25T00:45:17.981Z,17.18
2018-08-25T00:46:17.978Z,17.21
2018-08-25T00:47:17.971Z,17.25
2018-08-25T00:48:17.968Z,17.22
2018-08-25T00:49:17.964Z,17.30
2018-08-25T00:50:17.961Z,17.27
2018-08-25T00:51:17.964Z,17.20
2018-08-25T00:52:17.962Z,17.21
2018-08-25T00:53:17.956Z,17.25
2018-08-25T00:54:17.953Z,17.25
2018-08-25T00:55:17.947Z,17.20
2018-08-25T00:56:17.949Z,17.21
2018-08-25T00:57:17.944Z,17.22
2018-08-25T00:58:17.941Z,17.21
2018-08-25T00:59:17.952Z,17.22
2018-08-25T01:00:17.932Z,17.20
2018-08-25T01:01:17.929Z,17.20
2018-08-25T01:02:17.925Z,17.27
2018-08-25T01:03:17.929Z,17.24
2018-08-25T01:04:17.924Z,17.25
2018-08-25T01:05:17.921Z,17.14
2018-08-25T01:06:17.919Z,17.14
2018-08-25T01:07:17.910Z,17.22
2018-08-25T01:08:17.906Z,17.25
2018-08-25T01:09:17.905Z,17.25
2018-08-25T01:10:17.903Z,17.25
2018-08-25T01:11:17.903Z,17.25
2018-08-25T01:12:17.899Z,17.22
2018-08-25T01:13:17.891Z,17.27
2018-08-25T01:14:17.894Z,17.14
2018-08-25T01:15:17.890Z,17.14
2018-08-25T01:16:17.888Z,17.15
2018-08-25T01:17:17.886Z,17.10
2018-08-25T01:18:17.881Z,17.15
2018-08-25T01:19:17.874Z,17.15
2018-08-25T01:20:17.870Z,17.14
2018-08-25T01:21:17.869Z,17.09
2018-08-25T01:22:17.865Z,17.10
2018-08-25T01:23:17.868Z,17.15
2018-08-25T01:24:17.864Z,17.12
2018-08-25T01:25:17.861Z,17.07
2018-08-25T01:26:17.857Z,17.14
2018-08-25T01:27:17.850Z,17.06
2018-08-25T01:28:17.847Z,17.09
2018-08-25T01:29:17.847Z,17.07
2018-08-25T01:30:17.845Z,17.09
2018-08-25T01:31:17.837Z,16.98
2018-08-25T01:32:17.834Z,17.10
2018-08-25T01:33:17.830Z,17.15
2018-08-25T01:34:17.827Z,17.09
2018-08-25T01:35:17.831Z,17.12
2018-08-25T01:36:17.827Z,17.09
2018-08-25T01:37:17.818Z,17.06
2018-08-25T01:38:17.816Z,17.10
2018-08-25T01:39:17.817Z,17.07
2018-08-25T01:40:17.813Z,17.09
2018-08-25T01:41:17.814Z,17.00
2018-08-25T01:42:17.811Z,17.06
2018-08-25T01:43:17.800Z,17.05
2018-08-25T01:44:17.799Z,17.03
2018-08-25T01:45:17.799Z,17.02
2018-08-25T01:46:17.795Z,17.00
2018-08-25T01:47:17.788Z,16.99
2018-08-25T01:48:17.784Z,17.05
2018-08-25T01:49:17.782Z,17.02
2018-08-25T01:50:17.777Z,16.96
2018-08-25T01:51:17.782Z,16.90
2018-08-25T01:52:17.775Z,17.02
2018-08-25T01:53:17.773Z,17.05
2018-08-25T01:54:17.769Z,17.05
2018-08-25T01:55:17.764Z,17.03
2018-08-25T01:56:17.758Z,17.09
2018-08-25T01:57:17.759Z,17.03
2018-08-25T01:58:17.753Z,17.09
2018-08-25T01:59:17.755Z,17.12
2018-08-25T02:00:17.751Z,17.06
2018-08-25T02:01:17.743Z,17.07
2018-08-25T02:02:17.739Z,17.09
2018-08-25T02:03:17.746Z,17.10
2018-08-25T02:04:17.737Z,17.09
2018-08-25T02:05:17.734Z,17.14
2018-08-25T02:06:17.731Z,17.03
2018-08-25T02:07:17.723Z,17.15
2018-08-25T02:08:17.720Z,17.14
2018-08-25T02:09:17.716Z,17.10
2018-08-25T02:10:17.716Z,17.15
2018-08-25T02:11:17.714Z,17.09
2018-08-25T02:12:17.710Z,17.06
2018-08-25T02:13:17.712Z,17.07
2018-08-25T02:14:17.706Z,17.10
2018-08-25T02:15:17.700Z,17.06
2018-08-25T02:16:17.693Z,17.06
2018-08-25T02:17:17.696Z,17.10
2018-08-25T02:18:17.693Z,17.14
2018-08-25T02:19:17.684Z,17.05
2018-08-25T02:20:17.680Z,17.00
2018-08-25T02:21:17.677Z,17.00
2018-08-25T02:22:17.674Z,16.95
2018-08-25T02:23:17.676Z,16.95
2018-08-25T02:24:17.674Z,16.77
2018-08-25T02:25:17.668Z,16.77
2018-08-25T02:26:17.666Z,16.81
2018-08-25T02:27:17.657Z,16.78
2018-08-25T02:28:17.754Z,16.59
2018-08-25T02:29:17.651Z,16.54
2018-08-25T02:30:17.650Z,16.47
2018-08-25T02:31:17.651Z,16.45
2018-08-25T02:32:17.646Z,16.40
2018-08-25T02:33:17.637Z,16.32
2018-08-25T02:34:17.635Z,16.32
2018-08-25T02:35:17.638Z,16.27
2018-08-25T02:36:17.633Z,16.26
2018-08-25T02:37:17.628Z,16.25
2018-08-25T02:38:17.624Z,16.25
2018-08-25T02:39:17.617Z,16.11
2018-08-25T02:40:17.612Z,16.11
2018-08-25T02:41:17.615Z,16.11
2018-08-25T02:42:17.606Z,16.13
2018-08-25T02:43:17.609Z,16.10
2018-08-25T02:44:17.604Z,16.10
2018-08-25T02:45:17.602Z,16.06
2018-08-25T02:46:17.598Z,16.07
2018-08-25T02:47:17.591Z,16.22
2018-08-25T02:48:17.589Z,16.11
2018-08-25T02:49:17.592Z,16.11
2018-08-25T02:50:17.583Z,16.13
2018-08-25T02:51:17.574Z,16.17
2018-08-25T02:52:17.573Z,16.10
2018-08-25T02:53:17.569Z,16.22
2018-08-25T02:54:17.565Z,16.25
2018-08-25T02:55:17.565Z,16.11
2018-08-25T02:56:17.562Z,16.22
2018-08-25T02:57:17.559Z,16.16
2018-08-25T02:58:17.564Z,16.13
2018-08-25T02:59:17.546Z,16.08
2018-08-25T03:00:17.544Z,16.01
2018-08-25T03:01:17.540Z,15.96
2018-08-25T03:02:17.539Z,15.96
2018-08-25T03:03:17.538Z,15.92
2018-08-25T03:04:17.537Z,15.96
2018-08-25T03:05:17.526Z,15.84
2018-08-25T03:06:17.521Z,15.89
2018-08-25T03:07:17.523Z,15.89
2018-08-25T03:08:17.525Z,15.81
2018-08-25T03:09:17.516Z,15.73
2018-08-25T03:10:17.517Z,15.68
2018-08-25T03:11:17.507Z,15.60
2018-08-25T03:12:17.501Z,15.64
2018-08-25T03:13:17.496Z,15.55
2018-08-25T03:14:17.492Z,15.55
2018-08-25T03:15:17.495Z,15.48
2018-08-25T03:16:17.493Z,15.49
2018-08-25T03:17:17.486Z,15.38
2018-08-25T03:18:17.483Z,15.35
2018-08-25T03:19:17.477Z,15.31
2018-08-25T03:20:17.469Z,15.16
2018-08-25T03:21:17.471Z,15.15
2018-08-25T03:22:17.467Z,15.16
2018-08-25T03:23:17.460Z,15.13
2018-08-25T03:24:17.455Z,15.01
2018-08-25T03:25:17.451Z,15.04
2018-08-25T03:26:17.454Z,14.95
2018-08-25T03:27:17.448Z,14.97
2018-08-25T03:28:17.445Z,14.90
2018-08-25T03:29:17.444Z,14.79
2018-08-25T03:30:17.445Z,14.78
2018-08-25T03:31:17.429Z,14.72
2018-08-25T03:32:17.426Z,14.66
2018-08-25T03:33:17.419Z,14.60
2018-08-25T03:34:17.417Z,14.53
2018-08-25T03:35:17.417Z,14.49
2018-08-25T03:36:17.412Z,14.45
2018-08-25T03:37:17.404Z,14.41
2018-08-25T03:38:17.400Z,14.44
2018-08-25T03:39:17.406Z,14.38
2018-08-25T03:40:17.397Z,14.27
2018-08-25T03:41:17.397Z,14.19
2018-08-25T03:42:17.388Z,14.16
2018-08-25T03:43:17.384Z,14.12
2018-08-25T03:44:17.374Z,14.13
2018-08-25T03:45:17.377Z,14.21
2018-08-25T03:46:17.366Z,14.19
2018-08-25T03:47:17.367Z,14.19
2018-08-25T03:48:17.364Z,14.17
2018-08-25T03:49:17.357Z,14.17
2018-08-25T03:50:17.352Z,14.16
2018-08-25T03:51:17.344Z,14.13
2018-08-25T03:52:17.339Z,14.19
2018-08-25T03:53:17.339Z,14.12
2018-08-25T03:54:17.335Z,14.17
2018-08-25T03:55:17.371Z,14.21
2018-08-25T03:56:17.321Z,14.16
2018-08-25T03:57:17.316Z,14.21
2018-08-25T03:58:17.313Z,14.12
2018-08-25T03:59:17.312Z,14.21
2018-08-25T04:00:17.307Z,14.27
2018-08-25T04:01:17.302Z,14.20
2018-08-25T04:02:17.299Z,14.17
2018-08-25T04:03:17.292Z,14.20
2018-08-25T04:04:17.284Z,14.09
2018-08-25T04:05:17.280Z,14.12
2018-08-25T04:06:17.280Z,14.12
2018-08-25T04:07:17.278Z,14.19
2018-08-25T04:08:17.272Z,14.13
2018-08-25T04:09:17.263Z,14.17
2018-08-25T04:10:17.259Z,14.17
2018-08-25T04:11:17.261Z,14.13
2018-08-25T04:12:17.255Z,14.13
2018-08-25T04:13:17.249Z,14.12
2018-08-25T04:14:17.245Z,14.16
2018-08-25T04:15:17.236Z,14.17
2018-08-25T04:16:17.230Z,14.17
2018-08-25T04:17:17.225Z,14.17
2018-08-25T04:18:17.222Z,14.20
2018-08-25T04:19:17.221Z,14.02
2018-08-25T04:20:17.216Z,14.12
2018-08-25T04:21:17.211Z,14.17
2018-08-25T04:22:17.242Z,14.19
2018-08-25T04:23:17.200Z,14.21
2018-08-25T04:24:17.194Z,14.21
2018-08-25T04:25:17.194Z,14.17
2018-08-25T04:26:17.189Z,14.23
2018-08-25T04:27:17.180Z,14.17
2018-08-25T04:28:17.175Z,14.20
2018-08-25T04:29:17.171Z,14.19
2018-08-25T04:30:17.167Z,14.24
2018-08-25T04:31:17.166Z,14.23
2018-08-25T04:32:17.162Z,14.26
2018-08-25T04:33:17.160Z,14.29
2018-08-25T04:34:17.153Z,14.16
2018-08-25T04:35:17.147Z,14.23
2018-08-25T04:36:17.140Z,14.27
2018-08-25T04:37:17.135Z,14.24
2018-08-25T04:38:17.133Z,14.24
2018-08-25T04:39:17.132Z,14.30
2018-08-25T04:40:17.129Z,14.31
2018-08-25T04:41:17.177Z,14.34
2018-08-25T04:42:17.113Z,14.27
2018-08-25T04:43:17.115Z,14.21
2018-08-25T04:44:17.107Z,14.23
2018-08-25T04:45:17.104Z,14.27
2018-08-25T04:46:17.098Z,14.27
2018-08-25T04:47:17.093Z,14.31
2018-08-25T04:48:17.085Z,14.27
2018-08-25T04:49:17.081Z,14.30
2018-08-25T04:50:17.077Z,14.30
2018-08-25T04:51:17.077Z,14.27
2018-08-25T04:52:17.072Z,14.24
2018-08-25T04:53:17.067Z,14.27
2018-08-25T04:54:17.063Z,14.27
2018-08-25T04:55:17.054Z,14.24
2018-08-25T04:56:17.049Z,14.35
2018-08-25T04:57:17.049Z,14.29
2018-08-25T04:58:17.046Z,14.39
2018-08-25T04:59:17.036Z,14.29
2018-08-25T05:00:17.031Z,14.31
2018-08-25T05:01:17.029Z,14.35
2018-08-25T05:02:17.024Z,14.30
2018-08-25T05:03:17.024Z,14.26
2018-08-25T05:04:17.020Z,14.26
2018-08-25T05:05:17.015Z,14.31
2018-08-25T05:06:17.010Z,14.29
2018-08-25T05:07:17.000Z,14.27
2018-08-25T05:08:16.996Z,14.30
2018-08-25T05:09:16.994Z,14.29
2018-08-25T05:10:16.987Z,14.34
2018-08-25T05:11:16.988Z,14.26
2018-08-25T05:12:16.981Z,14.27
2018-08-25T05:13:16.976Z,14.35
2018-08-25T05:14:16.968Z,14.34
2018-08-25T05:15:16.970Z,14.35
2018-08-25T05:16:16.964Z,14.26
2018-08-25T05:17:16.960Z,14.20
2018-08-25T05:18:16.957Z,14.21
2018-08-25T05:19:16.949Z,14.21
2018-08-25T05:20:16.941Z,14.21
2018-08-25T05:21:16.937Z,14.21
2018-08-25T05:22:16.936Z,14.26
2018-08-25T05:23:16.934Z,14.31
2018-08-25T05:24:16.930Z,14.36
2018-08-25T05:25:16.925Z,14.45
2018-08-25T05:26:16.918Z,14.67
2018-08-25T05:27:16.910Z,15.46
2018-08-25T05:28:16.906Z,15.59
2018-08-25T05:29:16.911Z,15.58
2018-08-25T05:30:16.901Z,15.71
2018-08-25T05:31:16.893Z,16.47
2018-08-25T05:32:16.887Z,16.66
2018-08-25T05:33:16.884Z,17.22
2018-08-25T05:34:16.880Z,17.57
2018-08-25T05:35:16.883Z,17.25
2018-08-25T05:36:16.878Z,16.96
2018-08-25T05:37:16.875Z,16.84
2018-08-25T05:38:16.871Z,16.65
2018-08-25T05:39:16.864Z,16.55
2018-08-25T05:40:16.859Z,16.40
2018-08-25T05:41:16.856Z,16.17
2018-08-25T05:42:16.854Z,15.96
2018-08-25T05:43:16.856Z,15.78
2018-08-25T05:44:16.956Z,15.81
2018-08-25T05:45:16.843Z,15.76
2018-08-25T05:46:16.841Z,15.73
2018-08-25T05:47:16.842Z,15.56
2018-08-25T05:48:16.839Z,15.55
2018-08-25T05:49:16.836Z,15.46
2018-08-25T05:50:16.834Z,15.43
2018-08-25T05:51:16.825Z,15.37
2018-08-25T05:52:16.821Z,15.18
2018-08-25T05:53:16.818Z,15.11
2018-08-25T05:54:16.815Z,15.03
2018-08-25T05:55:16.818Z,15.09
2018-08-25T05:56:16.812Z,15.12
2018-08-25T05:57:16.809Z,15.15
2018-08-25T05:58:16.807Z,15.18
2018-08-25T05:59:16.799Z,15.35
2018-08-25T06:00:16.797Z,15.34
2018-08-25T06:01:16.796Z,15.67
2018-08-25T06:02:16.793Z,15.73
2018-08-25T06:03:16.786Z,15.64
2018-08-25T06:04:16.781Z,15.74
2018-08-25T06:05:16.780Z,15.92
2018-08-25T06:06:16.776Z,16.66
2018-08-25T06:07:16.779Z,16.75
2018-08-25T06:08:16.775Z,16.81
2018-08-25T06:09:16.771Z,17.27
2018-08-25T06:10:16.769Z,17.53
2018-08-25T06:11:16.762Z,17.57
2018-08-25T06:12:16.758Z,17.33
2018-08-25T06:13:16.756Z,17.27
2018-08-25T06:14:16.753Z,17.10
2018-08-25T06:15:16.755Z,17.06
2018-08-25T06:16:16.753Z,16.99
2018-08-25T06:17:16.747Z,16.96
2018-08-25T06:18:16.749Z,16.82
2018-08-25T06:19:16.753Z,16.48
2018-08-25T06:20:16.744Z,16.08
2018-08-25T06:21:16.741Z,15.98
2018-08-25T06:22:16.742Z,15.95
2018-08-25T06:23:16.734Z,15.85
2018-08-25T06:24:16.730Z,15.93
2018-08-25T06:25:16.731Z,16.13
2018-08-25T06:26:16.776Z,16.42
2018-08-25T06:27:16.728Z,17.02
2018-08-25T06:28:16.725Z,17.20
2018-08-25T06:29:16.721Z,17.03
2018-08-25T06:30:16.873Z,16.87
2018-08-25T06:31:16.713Z,16.82
2018-08-25T06:32:16.710Z,16.63
2018-08-25T06:33:16.713Z,16.47
2018-08-25T06:34:16.710Z,16.30
2018-08-25T06:35:16.705Z,16.29
2018-08-25T06:36:16.701Z,16.18
2018-08-25T06:37:16.701Z,16.27
2018-08-25T06:38:16.698Z,16.11
2018-08-25T06:39:16.701Z,15.81
2018-08-25T06:40:16.698Z,15.93
2018-08-25T06:41:16.697Z,15.91
2018-08-25T06:42:16.694Z,15.88
2018-08-25T06:43:16.687Z,15.76
2018-08-25T06:44:16.683Z,15.71
2018-08-25T06:45:16.681Z,15.58
2018-08-25T06:46:16.680Z,15.52
2018-08-25T06:47:16.682Z,15.53
2018-08-25T06:48:16.678Z,15.49
2018-08-25T06:49:16.672Z,15.33
2018-08-25T06:50:16.670Z,15.52
2018-08-25T06:51:16.672Z,15.70
2018-08-25T06:52:16.669Z,15.74
2018-08-25T06:53:16.718Z,15.71
2018-08-25T06:54:16.666Z,15.68
2018-08-25T06:55:16.660Z,15.73
2018-08-25T06:56:16.659Z,15.62
2018-08-25T06:57:16.651Z,15.66
2018-08-25T06:58:16.649Z,15.68
2018-08-25T06:59:16.651Z,15.85
2018-08-25T07:00:16.648Z,15.77
2018-08-25T07:01:16.647Z,15.74
2018-08-25T07:02:16.646Z,15.73
2018-08-25T07:03:16.637Z,15.68
2018-08-25T07:04:16.634Z,15.67
2018-08-25T07:05:16.637Z,15.73
2018-08-25T07:06:16.644Z,15.62
2018-08-25T07:07:16.628Z,15.64
2018-08-25T07:08:16.623Z,15.71
2018-08-25T07:09:16.620Z,15.68
2018-08-25T07:10:16.618Z,15.84
2018-08-25T07:11:16.620Z,15.89
2018-08-25T07:12:16.620Z,15.76
2018-08-25T07:13:16.614Z,16.01
2018-08-25T07:14:16.612Z,16.33
2018-08-25T07:15:16.606Z,16.48
2018-08-25T07:16:16.602Z,16.44
2018-08-25T07:17:16.599Z,16.54
2018-08-25T07:18:16.597Z,16.67
2018-08-25T07:19:16.601Z,16.63
2018-08-25T07:20:16.598Z,16.80
2018-08-25T07:21:16.590Z,16.90
2018-08-25T07:22:16.589Z,17.24
2018-08-25T07:23:16.591Z,17.22
2018-08-25T07:24:16.588Z,17.42
2018-08-25T07:25:16.585Z,18.04
2018-08-25T07:26:16.682Z,19.31
2018-08-25T07:27:16.578Z,20.26
2018-08-25T07:28:16.576Z,20.81
2018-08-25T07:29:16.576Z,22.21
2018-08-25T07:30:16.574Z,23.21
2018-08-25T07:31:16.585Z,22.81
2018-08-25T07:32:16.693Z,21.96
2018-08-25T07:33:16.578Z,21.42
2018-08-25T07:34:16.583Z,21.22
2018-08-25T07:35:16.576Z,20.96
2018-08-25T07:36:16.575Z,21.05
2018-08-25T07:37:16.582Z,21.28
2018-08-25T07:38:16.643Z,21.82
2018-08-25T07:39:16.581Z,22.52
2018-08-25T07:40:16.580Z,22.85
2018-08-25T07:41:16.582Z,22.86
2018-08-25T07:42:16.584Z,22.99
2018-08-25T07:43:16.591Z,22.30
2018-08-25T07:44:16.595Z,23.04
2018-08-25T07:45:16.646Z,23.57
2018-08-25T07:46:16.599Z,23.07
2018-08-25T07:47:16.598Z,23.23
2018-08-25T07:48:16.599Z,24.33
2018-08-25T07:49:16.603Z,23.37
2018-08-25T07:50:16.606Z,24.33
2018-08-25T07:51:16.615Z,24.63
2018-08-25T07:52:16.622Z,25.56
2018-08-25T07:53:16.616Z,25.05
2018-08-25T07:54:16.621Z,24.83
2018-08-25T07:55:16.630Z,24.34
2018-08-25T07:56:16.633Z,24.06
2018-08-25T07:57:16.637Z,23.79
2018-08-25T07:58:16.697Z,22.85
2018-08-25T07:59:16.737Z,22.12
2018-08-25T08:00:16.646Z,21.59
2018-08-25T08:01:16.652Z,21.13
2018-08-25T08:02:16.657Z,20.88
2018-08-25T08:03:16.665Z,20.81
2018-08-25T08:04:16.669Z,20.68
2018-08-25T08:05:16.671Z,20.44
2018-08-25T08:06:16.676Z,20.40
2018-08-25T08:07:16.675Z,20.13
2018-08-25T08:08:16.678Z,19.87
2018-08-25T08:09:16.685Z,19.31
2018-08-25T08:10:16.689Z,19.46
2018-08-25T08:11:16.689Z,19.40
2018-08-25T08:12:16.782Z,19.52
2018-08-25T08:13:16.693Z,19.46
2018-08-25T08:14:16.695Z,19.42
2018-08-25T08:15:16.703Z,19.20
2018-08-25T08:16:16.704Z,19.06
2018-08-25T08:17:16.706Z,19.06
2018-08-25T08:18:16.708Z,18.84
2018-08-25T08:19:16.709Z,18.78
2018-08-25T08:20:16.709Z,18.82
2018-08-25T08:21:16.708Z,18.71
2018-08-25T08:22:16.711Z,18.60
2018-08-25T08:23:16.716Z,18.62
2018-08-25T08:24:16.718Z,18.56
2018-08-25T08:25:16.713Z,18.42
2018-08-25T08:26:16.714Z,18.50
2018-08-25T08:27:16.722Z,18.62
2018-08-25T08:28:16.720Z,18.87
2018-08-25T08:29:16.725Z,18.78
2018-08-25T08:30:16.722Z,18.91
2018-08-25T08:31:16.718Z,18.93
2018-08-25T08:32:16.718Z,18.99
2018-08-25T08:33:16.718Z,18.97
2018-08-25T08:34:16.721Z,19.15
2018-08-25T08:35:16.726Z,19.32
2018-08-25T08:36:16.726Z,19.38
2018-08-25T08:37:16.724Z,19.72
2018-08-25T08:38:16.725Z,20.13
2018-08-25T08:39:16.721Z,20.44
2018-08-25T08:40:16.721Z,20.48
2018-08-25T08:41:16.726Z,20.34
2018-08-25T08:42:16.775Z,20.31
2018-08-25T08:43:16.723Z,20.33
2018-08-25T08:44:16.724Z,20.04
2018-08-25T08:45:16.772Z,20.07
2018-08-25T08:46:16.726Z,20.05
2018-08-25T08:47:16.751Z,20.13
2018-08-25T08:48:16.739Z,20.16
2018-08-25T08:49:16.732Z,20.13
2018-08-25T08:50:16.746Z,20.31
2018-08-25T08:51:16.730Z,20.53
2018-08-25T08:52:16.728Z,20.51
2018-08-25T08:53:16.730Z,20.81
2018-08-25T08:54:16.737Z,21.15
2018-08-25T08:55:16.736Z,21.40
2018-08-25T08:56:16.737Z,21.21
2018-08-25T08:57:16.735Z,21.70
2018-08-25T08:58:16.829Z,22.78
2018-08-25T08:59:16.741Z,22.66
2018-08-25T09:00:16.741Z,22.31
2018-08-25T09:01:16.745Z,22.20
2018-08-25T09:02:16.747Z,21.85
2018-08-25T09:03:16.798Z,21.63
2018-08-25T09:04:16.745Z,22.21
2018-08-25T09:05:16.747Z,22.15
2018-08-25T09:06:16.749Z,21.86
2018-08-25T09:07:16.756Z,21.77
2018-08-25T09:08:16.759Z,21.45
2018-08-25T09:09:16.761Z,21.70
2018-08-25T09:10:16.764Z,21.38
2018-08-25T09:11:16.818Z,21.64
2018-08-25T09:12:16.762Z,21.73
2018-08-25T09:13:16.770Z,21.71
2018-08-25T09:14:16.771Z,21.91
2018-08-25T09:15:16.770Z,22.38
2018-08-25T09:16:16.773Z,22.57
2018-08-25T09:17:16.778Z,23.94
2018-08-25T09:18:16.820Z,23.79
2018-08-25T09:19:16.854Z,24.84
2018-08-25T09:20:16.787Z,26.41
2018-08-25T09:21:16.788Z,26.84
2018-08-25T09:22:16.793Z,27.18
2018-08-25T09:23:16.793Z,26.88
2018-08-25T09:24:16.794Z,26.97
2018-08-25T09:25:16.800Z,27.58
2018-08-25T09:26:16.805Z,28.15
2018-08-25T09:27:16.835Z,27.46
2018-08-25T09:28:16.820Z,26.88
2018-08-25T09:29:16.822Z,26.44
2018-08-25T09:30:16.830Z,25.60
2018-08-25T09:31:16.840Z,25.41
2018-08-25T09:32:16.845Z,25.48
2018-08-25T09:33:16.851Z,27.46
2018-08-25T09:34:16.857Z,27.45
2018-08-25T09:35:16.863Z,27.77
2018-08-25T09:36:16.941Z,27.45
2018-08-25T09:37:16.876Z,27.33
2018-08-25T09:38:16.881Z,27.50
2018-08-25T09:39:16.892Z,27.13
2018-08-25T09:40:16.895Z,26.88
2018-08-25T09:41:16.902Z,26.83
2018-08-25T09:42:16.909Z,27.28
2018-08-25T09:43:16.911Z,27.20
2018-08-25T09:44:16.918Z,27.05
2018-08-25T09:45:16.930Z,27.01
2018-08-25T09:46:16.936Z,27.16
2018-08-25T09:47:16.940Z,27.12
2018-08-25T09:48:16.943Z,26.84
2018-08-25T09:49:16.967Z,26.78
2018-08-25T09:50:16.959Z,26.86
2018-08-25T09:51:16.968Z,26.91
2018-08-25T09:52:16.973Z,27.02
2018-08-25T09:53:16.982Z,26.42
2018-08-25T09:54:16.987Z,26.24
2018-08-25T09:55:16.988Z,26.88
2018-08-25T09:56:16.994Z,26.60
2018-08-25T09:57:16.999Z,26.69
2018-08-25T09:58:17.005Z,26.61
2018-08-25T09:59:17.021Z,26.38
2018-08-25T10:00:17.023Z,25.90
2018-08-25T10:01:17.024Z,25.63
2018-08-25T10:02:17.026Z,25.64
2018-08-25T10:03:17.037Z,25.35
2018-08-25T10:04:17.045Z,26.86
2018-08-25T10:05:17.196Z,27.46
2018-08-25T10:06:17.051Z,27.49
2018-08-25T10:07:17.052Z,27.40
2018-08-25T10:08:17.058Z,26.93
2018-08-25T10:09:17.061Z,27.05
2018-08-25T10:10:17.068Z,26.96
2018-08-25T10:11:17.076Z,28.42
2018-08-25T10:12:17.082Z,29.54
2018-08-25T10:13:17.085Z,28.46
2018-08-25T10:14:17.091Z,29.92
2018-08-25T10:15:17.092Z,30.56
2018-08-25T10:16:17.119Z,30.22
2018-08-25T10:17:17.108Z,29.44
2018-08-25T10:18:17.115Z,28.61
2018-08-25T10:19:17.118Z,28.42
2018-08-25T10:20:17.121Z,27.96
2018-08-25T10:21:17.128Z,28.30
2018-08-25T10:22:17.136Z,28.72
2018-08-25T10:23:17.176Z,30.34
2018-08-25T10:24:17.151Z,31.46
2018-08-25T10:25:17.160Z,32.35
2018-08-25T10:26:17.166Z,32.81
2018-08-25T10:27:17.169Z,33.00
2018-08-25T10:28:17.177Z,32.24
2018-08-25T10:29:17.185Z,32.90
2018-08-25T10:30:17.192Z,31.69
2018-08-25T10:31:17.205Z,31.22
2018-08-25T10:32:17.213Z,31.47
2018-08-25T10:33:17.221Z,31.10
2018-08-25T10:34:17.226Z,30.63
2018-08-25T10:35:17.242Z,30.28
2018-08-25T10:36:17.251Z,29.70
2018-08-25T10:37:17.260Z,30.34
2018-08-25T10:38:17.267Z,30.93
2018-08-25T10:39:17.276Z,29.58
2018-08-25T10:40:17.281Z,29.00
2018-08-25T10:41:17.290Z,28.69
2018-08-25T10:42:17.299Z,28.23
2018-08-25T10:43:17.315Z,27.80
2018-08-25T10:44:17.320Z,27.40
2018-08-25T10:45:17.327Z,27.08
2018-08-25T10:46:17.335Z,26.98
2018-08-25T10:47:17.338Z,26.83
2018-08-25T10:48:17.347Z,26.73
2018-08-25T10:49:17.357Z,26.94
2018-08-25T10:50:17.364Z,27.53
2018-08-25T10:51:17.368Z,27.78
2018-08-25T10:52:17.373Z,28.20
2018-08-25T10:53:17.380Z,29.03
2018-08-25T10:54:17.388Z,28.28
2018-08-25T10:55:17.401Z,28.06
2018-08-25T10:56:17.408Z,27.80
2018-08-25T10:57:17.416Z,27.62
2018-08-25T10:58:17.422Z,26.97
2018-08-25T10:59:17.424Z,27.05
2018-08-25T11:00:17.482Z,27.49
2018-08-25T11:01:17.509Z,27.84
2018-08-25T11:02:17.445Z,28.85
2018-08-25T11:03:17.457Z,28.98
2018-08-25T11:04:17.463Z,30.13
2018-08-25T11:05:17.467Z,29.52
2018-08-25T11:06:17.476Z,29.58
2018-08-25T11:07:17.488Z,30.00
2018-08-25T11:08:17.494Z,30.34
2018-08-25T11:09:17.511Z,30.83
2018-08-25T11:10:17.511Z,31.46
2018-08-25T11:11:17.517Z,31.22
2018-08-25T11:12:17.524Z,31.68
2018-08-25T11:13:17.533Z,30.66
2018-08-25T11:14:17.543Z,30.11
2018-08-25T11:15:17.560Z,29.32
2018-08-25T11:16:17.626Z,28.38
2018-08-25T11:17:17.580Z,27.87
2018-08-25T11:18:17.587Z,27.05
2018-08-25T11:19:17.595Z,26.87
2018-08-25T11:20:17.599Z,26.81
2018-08-25T11:21:17.612Z,26.28
2018-08-25T11:22:17.624Z,25.64
2018-08-25T11:23:17.624Z,25.53
2018-08-25T11:24:17.632Z,25.48
2018-08-25T11:25:17.639Z,25.83
2018-08-25T11:26:17.648Z,25.98
2018-08-25T11:27:17.658Z,26.29
2018-08-25T11:28:17.666Z,26.65
2018-08-25T11:29:17.691Z,26.72
2018-08-25T11:30:17.677Z,26.69
2018-08-25T11:31:17.679Z,26.46
2018-08-25T11:32:17.685Z,26.06
2018-08-25T11:33:17.690Z,26.04
2018-08-25T11:34:17.698Z,25.61
2018-08-25T11:35:17.710Z,25.60
2018-08-25T11:36:17.713Z,25.51
2018-08-25T11:37:17.793Z,25.36
2018-08-25T11:38:17.722Z,25.17
2018-08-25T11:39:17.728Z,24.94
2018-08-25T11:40:17.733Z,24.77
2018-08-25T11:41:17.736Z,24.63
2018-08-25T11:42:17.742Z,24.48
2018-08-25T11:43:17.745Z,24.31
2018-08-25T11:44:17.746Z,24.36
2018-08-25T11:45:17.750Z,24.51
2018-08-25T11:46:17.761Z,24.64
2018-08-25T11:47:17.763Z,24.77
2018-08-25T11:48:17.771Z,24.64
2018-08-25T11:49:17.771Z,24.68
2018-08-25T11:50:17.776Z,24.77
2018-08-25T11:51:17.775Z,24.86
2018-08-25T11:52:17.778Z,25.01
2018-08-25T11:53:17.787Z,25.11
2018-08-25T11:54:17.789Z,25.12
2018-08-25T11:55:17.788Z,25.34
2018-08-25T11:56:17.792Z,25.36
2018-08-25T11:57:17.795Z,25.63
2018-08-25T11:58:17.849Z,25.69
2018-08-25T11:59:17.807Z,25.78
2018-08-25T12:00:17.809Z,25.83
2018-08-25T12:01:17.813Z,25.53
2018-08-25T12:02:17.883Z,25.71
2018-08-25T12:03:17.838Z,25.69
2018-08-25T12:04:17.818Z,25.86
2018-08-25T12:05:17.822Z,25.97
2018-08-25T12:06:17.825Z,26.01
2018-08-25T12:07:17.835Z,26.09
2018-08-25T12:08:17.837Z,25.61
2018-08-25T12:09:17.836Z,25.64
2018-08-25T12:10:17.839Z,25.46
2018-08-25T12:11:17.848Z,25.44
2018-08-25T12:12:17.849Z,25.39
2018-08-25T12:13:17.853Z,25.30
2018-08-25T12:14:17.855Z,25.29
2018-08-25T12:15:17.854Z,25.14
2018-08-25T12:16:17.912Z,25.09
2018-08-25T12:17:17.861Z,25.01
2018-08-25T12:18:17.864Z,25.11
2018-08-25T12:19:17.872Z,25.19
2018-08-25T12:20:17.874Z,24.97
2018-08-25T12:21:17.878Z,25.07
2018-08-25T12:22:17.878Z,25.14
2018-08-25T12:23:17.882Z,25.14
2018-08-25T12:24:17.880Z,24.93
2018-08-25T12:25:17.887Z,24.86
2018-08-25T12:26:17.890Z,24.80
2018-08-25T12:27:17.888Z,24.83
2018-08-25T12:28:17.890Z,24.83
2018-08-25T12:29:17.894Z,24.84
2018-08-25T12:30:17.897Z,24.74
2018-08-25T12:31:17.905Z,24.74
2018-08-25T12:32:17.908Z,24.92
2018-08-25T12:33:17.913Z,24.70
2018-08-25T12:34:17.912Z,24.68
2018-08-25T12:35:17.911Z,24.66
2018-08-25T12:36:17.913Z,24.41
2018-08-25T12:37:17.916Z,24.23
2018-08-25T12:38:17.921Z,24.15
2018-08-25T12:39:17.927Z,23.99
2018-08-25T12:40:17.926Z,23.97
2018-08-25T12:41:17.924Z,23.75
2018-08-25T12:42:17.930Z,23.50
2018-08-25T12:43:17.991Z,23.14
2018-08-25T12:44:17.936Z,22.88
2018-08-25T12:45:17.936Z,22.67
2018-08-25T12:46:17.940Z,22.39
2018-08-25T12:47:17.936Z,22.08
2018-08-25T12:48:17.937Z,21.64
2018-08-25T12:49:17.939Z,21.55
2018-08-25T12:50:17.940Z,21.31
2018-08-25T12:51:17.946Z,21.22
2018-08-25T12:52:17.948Z,21.19